sensor_id;sensor_type;location;lat;lon;timestamp;temperature;humidity
75824;DHT22;64457;51.976;9.834;2023-04-21T00:01:31;12.30;92.90
75824;DHT22;64457;51.976;9.834;2023-04-21T00:03:59;12.10;92.80
75824;DHT22;64457;51.976;9.834;2023-04-21T00:06:26;12.10;93.20
75824;DHT22;64457;51.976;9.834;2023-04-21T00:08:55;11.90;93.50
75824;DHT22;64457;51.976;9.834;2023-04-21T00:11:23;11.60;94.10
75824;DHT22;64457;51.976;9.834;2023-04-21T00:13:50;11.70;93.80
75824;DHT22;64457;51.976;9.834;2023-04-21T00:16:18;11.60;94.20
75824;DHT22;64457;51.976;9.834;2023-04-21T00:18:48;11.40;94.90
75824;DHT22;64457;51.976;9.834;2023-04-21T00:21:15;11.40;94.90
75824;DHT22;64457;51.976;9.834;2023-04-21T00:23:43;11.40;94.90
75824;DHT22;64457;51.976;9.834;2023-04-21T00:26:12;11.50;95.20
75824;DHT22;64457;51.976;9.834;2023-04-21T00:28:39;11.70;95.10
75824;DHT22;64457;51.976;9.834;2023-04-21T00:31:06;11.80;95.10
75824;DHT22;64457;51.976;9.834;2023-04-21T00:33:33;11.90;94.80
75824;DHT22;64457;51.976;9.834;2023-04-21T00:36:02;11.90;94.60
75824;DHT22;64457;51.976;9.834;2023-04-21T00:38:30;11.90;95.00
75824;DHT22;64457;51.976;9.834;2023-04-21T00:40:57;11.50;96.80
75824;DHT22;64457;51.976;9.834;2023-04-21T00:43:25;11.70;96.80
75824;DHT22;64457;51.976;9.834;2023-04-21T00:45:53;12.00;95.90
75824;DHT22;64457;51.976;9.834;2023-04-21T00:48:20;12.20;95.40
75824;DHT22;64457;51.976;9.834;2023-04-21T00:50:48;12.40;94.90
75824;DHT22;64457;51.976;9.834;2023-04-21T00:53:18;12.50;94.30
75824;DHT22;64457;51.976;9.834;2023-04-21T00:55:46;12.60;94.10
75824;DHT22;64457;51.976;9.834;2023-04-21T00:58:13;12.50;94.20
75824;DHT22;64457;51.976;9.834;2023-04-21T01:00:41;12.50;94.40
75824;DHT22;64457;51.976;9.834;2023-04-21T01:03:09;12.60;94.30
75824;DHT22;64457;51.976;9.834;2023-04-21T01:05:36;12.40;94.70
75824;DHT22;64457;51.976;9.834;2023-04-21T01:08:05;12.30;95.10
75824;DHT22;64457;51.976;9.834;2023-04-21T01:10:34;12.20;95.80
75824;DHT22;64457;51.976;9.834;2023-04-21T01:13:02;12.30;95.00
75824;DHT22;64457;51.976;9.834;2023-04-21T01:15:30;12.40;95.10
75824;DHT22;64457;51.976;9.834;2023-04-21T01:17:58;12.40;95.10
75824;DHT22;64457;51.976;9.834;2023-04-21T01:20:26;12.20;95.60
75824;DHT22;64457;51.976;9.834;2023-04-21T01:22:55;12.10;95.10
75824;DHT22;64457;51.976;9.834;2023-04-21T01:25:23;12.10;95.70
75824;DHT22;64457;51.976;9.834;2023-04-21T01:27:53;12.10;95.60
75824;DHT22;64457;51.976;9.834;2023-04-21T01:30:22;12.10;95.20
75824;DHT22;64457;51.976;9.834;2023-04-21T01:32:51;12.10;95.70
75824;DHT22;64457;51.976;9.834;2023-04-21T01:35:18;12.00;96.30
75824;DHT22;64457;51.976;9.834;2023-04-21T01:37:45;12.10;96.00
75824;DHT22;64457;51.976;9.834;2023-04-21T01:40:14;12.20;95.90
75824;DHT22;64457;51.976;9.834;2023-04-21T01:42:42;12.20;95.90
75824;DHT22;64457;51.976;9.834;2023-04-21T01:45:10;12.20;96.00
75824;DHT22;64457;51.976;9.834;2023-04-21T01:47:38;12.30;95.60
75824;DHT22;64457;51.976;9.834;2023-04-21T01:50:06;12.40;94.80
75824;DHT22;64457;51.976;9.834;2023-04-21T01:52:34;12.50;94.90
75824;DHT22;64457;51.976;9.834;2023-04-21T01:55:01;12.50;95.00
75824;DHT22;64457;51.976;9.834;2023-04-21T01:57:30;12.20;95.70
75824;DHT22;64457;51.976;9.834;2023-04-21T01:59:58;11.90;96.90
75824;DHT22;64457;51.976;9.834;2023-04-21T02:02:25;12.00;96.50
75824;DHT22;64457;51.976;9.834;2023-04-21T02:04:53;12.10;96.50
75824;DHT22;64457;51.976;9.834;2023-04-21T02:07:20;12.20;95.90
75824;DHT22;64457;51.976;9.834;2023-04-21T02:09:47;12.20;96.20
75824;DHT22;64457;51.976;9.834;2023-04-21T02:12:15;12.30;95.80
75824;DHT22;64457;51.976;9.834;2023-04-21T02:14:43;12.30;96.00
75824;DHT22;64457;51.976;9.834;2023-04-21T02:17:12;12.10;96.50
75824;DHT22;64457;51.976;9.834;2023-04-21T02:19:40;12.10;96.40
75824;DHT22;64457;51.976;9.834;2023-04-21T02:22:07;12.20;96.00
75824;DHT22;64457;51.976;9.834;2023-04-21T02:24:37;12.40;95.80
75824;DHT22;64457;51.976;9.834;2023-04-21T02:27:04;12.40;95.50
75824;DHT22;64457;51.976;9.834;2023-04-21T02:29:32;12.30;96.00
75824;DHT22;64457;51.976;9.834;2023-04-21T02:32:00;12.50;95.30
75824;DHT22;64457;51.976;9.834;2023-04-21T02:34:27;12.60;95.30
75824;DHT22;64457;51.976;9.834;2023-04-21T02:36:55;12.70;94.50
75824;DHT22;64457;51.976;9.834;2023-04-21T02:39:22;12.70;94.30
75824;DHT22;64457;51.976;9.834;2023-04-21T02:41:49;12.80;94.30
75824;DHT22;64457;51.976;9.834;2023-04-21T02:44:17;12.90;94.10
75824;DHT22;64457;51.976;9.834;2023-04-21T02:46:44;12.80;94.30
75824;DHT22;64457;51.976;9.834;2023-04-21T02:49:13;12.70;94.30
75824;DHT22;64457;51.976;9.834;2023-04-21T02:51:40;12.60;94.10
75824;DHT22;64457;51.976;9.834;2023-04-21T02:54:08;12.60;94.20
75824;DHT22;64457;51.976;9.834;2023-04-21T02:56:35;12.40;94.60
75824;DHT22;64457;51.976;9.834;2023-04-21T02:59:03;12.10;94.80
75824;DHT22;64457;51.976;9.834;2023-04-21T03:01:30;12.00;94.90
75824;DHT22;64457;51.976;9.834;2023-04-21T03:03:57;11.80;95.30
75824;DHT22;64457;51.976;9.834;2023-04-21T03:06:26;11.80;95.50
75824;DHT22;64457;51.976;9.834;2023-04-21T03:08:54;11.60;95.40
75824;DHT22;64457;51.976;9.834;2023-04-21T03:11:21;11.40;96.20
75824;DHT22;64457;51.976;9.834;2023-04-21T03:13:48;11.50;95.90
75824;DHT22;64457;51.976;9.834;2023-04-21T03:16:16;11.60;96.00
75824;DHT22;64457;51.976;9.834;2023-04-21T03:18:44;11.50;96.00
75824;DHT22;64457;51.976;9.834;2023-04-21T03:21:11;11.60;96.40
75824;DHT22;64457;51.976;9.834;2023-04-21T03:23:40;11.70;95.90
75824;DHT22;64457;51.976;9.834;2023-04-21T03:26:08;11.70;96.30
75824;DHT22;64457;51.976;9.834;2023-04-21T03:28:36;11.80;96.00
75824;DHT22;64457;51.976;9.834;2023-04-21T03:31:03;11.80;95.70
75824;DHT22;64457;51.976;9.834;2023-04-21T03:33:30;11.50;96.10
75824;DHT22;64457;51.976;9.834;2023-04-21T03:35:58;11.50;96.30
75824;DHT22;64457;51.976;9.834;2023-04-21T03:38:27;11.50;96.00
75824;DHT22;64457;51.976;9.834;2023-04-21T03:40:56;11.60;95.70
75824;DHT22;64457;51.976;9.834;2023-04-21T03:43:24;11.70;95.50
75824;DHT22;64457;51.976;9.834;2023-04-21T03:45:51;11.60;95.30
75824;DHT22;64457;51.976;9.834;2023-04-21T03:48:18;11.40;95.60
75824;DHT22;64457;51.976;9.834;2023-04-21T03:50:46;11.40;95.40
75824;DHT22;64457;51.976;9.834;2023-04-21T03:53:13;11.20;95.60
75824;DHT22;64457;51.976;9.834;2023-04-21T03:55:40;11.20;95.90
75824;DHT22;64457;51.976;9.834;2023-04-21T03:58:09;11.10;95.90
75824;DHT22;64457;51.976;9.834;2023-04-21T04:00:37;11.10;96.10
75824;DHT22;64457;51.976;9.834;2023-04-21T04:03:04;11.10;96.10
75824;DHT22;64457;51.976;9.834;2023-04-21T04:05:32;11.20;96.10
75824;DHT22;64457;51.976;9.834;2023-04-21T04:08:01;11.30;95.80
75824;DHT22;64457;51.976;9.834;2023-04-21T04:10:28;11.30;95.80
75824;DHT22;64457;51.976;9.834;2023-04-21T04:12:56;11.40;95.80
75824;DHT22;64457;51.976;9.834;2023-04-21T04:15:25;11.50;95.90
75824;DHT22;64457;51.976;9.834;2023-04-21T04:17:52;11.60;95.90
75824;DHT22;64457;51.976;9.834;2023-04-21T04:20:20;11.80;95.40
75824;DHT22;64457;51.976;9.834;2023-04-21T04:22:48;11.80;95.70
75824;DHT22;64457;51.976;9.834;2023-04-21T04:25:15;11.80;95.70
75824;DHT22;64457;51.976;9.834;2023-04-21T04:27:43;11.80;95.50
75824;DHT22;64457;51.976;9.834;2023-04-21T04:30:12;11.80;95.70
75824;DHT22;64457;51.976;9.834;2023-04-21T04:32:42;11.80;95.70
75824;DHT22;64457;51.976;9.834;2023-04-21T04:35:09;11.90;95.70
75824;DHT22;64457;51.976;9.834;2023-04-21T04:37:38;12.10;95.40
75824;DHT22;64457;51.976;9.834;2023-04-21T04:40:06;12.20;95.20
75824;DHT22;64457;51.976;9.834;2023-04-21T04:42:36;12.10;95.20
75824;DHT22;64457;51.976;9.834;2023-04-21T04:45:06;12.00;95.80
75824;DHT22;64457;51.976;9.834;2023-04-21T04:47:34;12.00;95.90
75824;DHT22;64457;51.976;9.834;2023-04-21T04:50:04;12.20;95.70
75824;DHT22;64457;51.976;9.834;2023-04-21T04:52:32;12.50;95.60
75824;DHT22;64457;51.976;9.834;2023-04-21T04:54:59;12.70;94.70
75824;DHT22;64457;51.976;9.834;2023-04-21T04:57:27;12.90;94.80
75824;DHT22;64457;51.976;9.834;2023-04-21T04:59:55;13.00;94.90
75824;DHT22;64457;51.976;9.834;2023-04-21T05:02:22;13.20;94.70
75824;DHT22;64457;51.976;9.834;2023-04-21T05:04:49;13.40;93.40
75824;DHT22;64457;51.976;9.834;2023-04-21T05:07:18;13.50;93.70
75824;DHT22;64457;51.976;9.834;2023-04-21T05:09:45;13.60;93.60
75824;DHT22;64457;51.976;9.834;2023-04-21T05:12:13;13.60;93.60
75824;DHT22;64457;51.976;9.834;2023-04-21T05:14:40;13.40;94.00
75824;DHT22;64457;51.976;9.834;2023-04-21T05:17:07;13.50;93.80
75824;DHT22;64457;51.976;9.834;2023-04-21T05:19:35;13.50;93.90
75824;DHT22;64457;51.976;9.834;2023-04-21T05:22:03;13.20;94.20
75824;DHT22;64457;51.976;9.834;2023-04-21T05:24:33;13.10;94.40
75824;DHT22;64457;51.976;9.834;2023-04-21T05:27:00;13.10;94.60
75824;DHT22;64457;51.976;9.834;2023-04-21T05:29:29;13.20;94.30
75824;DHT22;64457;51.976;9.834;2023-04-21T05:31:56;13.00;94.70
75824;DHT22;64457;51.976;9.834;2023-04-21T05:34:23;13.10;94.60
75824;DHT22;64457;51.976;9.834;2023-04-21T05:36:50;13.10;94.50
75824;DHT22;64457;51.976;9.834;2023-04-21T05:39:18;13.10;94.60
75824;DHT22;64457;51.976;9.834;2023-04-21T05:41:47;13.10;94.60
75824;DHT22;64457;51.976;9.834;2023-04-21T05:44:15;13.10;95.20
75824;DHT22;64457;51.976;9.834;2023-04-21T05:46:43;13.70;95.30
75824;DHT22;64457;51.976;9.834;2023-04-21T05:49:10;15.30;93.20
75824;DHT22;64457;51.976;9.834;2023-04-21T05:51:38;17.10;91.50
75824;DHT22;64457;51.976;9.834;2023-04-21T05:54:05;19.00;87.60
75824;DHT22;64457;51.976;9.834;2023-04-21T05:56:32;20.70;81.20
75824;DHT22;64457;51.976;9.834;2023-04-21T05:59:01;22.30;77.30
75824;DHT22;64457;51.976;9.834;2023-04-21T06:01:29;23.00;72.20
75824;DHT22;64457;51.976;9.834;2023-04-21T06:03:57;22.80;71.30
75824;DHT22;64457;51.976;9.834;2023-04-21T06:06:25;22.70;72.10
75824;DHT22;64457;51.976;9.834;2023-04-21T06:08:52;22.90;71.40
75824;DHT22;64457;51.976;9.834;2023-04-21T06:11:20;23.40;70.40
75824;DHT22;64457;51.976;9.834;2023-04-21T06:13:47;23.80;69.30
75824;DHT22;64457;51.976;9.834;2023-04-21T06:16:15;24.70;67.40
75824;DHT22;64457;51.976;9.834;2023-04-21T06:18:43;25.50;65.30
75824;DHT22;64457;51.976;9.834;2023-04-21T06:21:10;25.70;64.10
75824;DHT22;64457;51.976;9.834;2023-04-21T06:23:37;25.70;61.60
75824;DHT22;64457;51.976;9.834;2023-04-21T06:26:06;25.80;61.70
75824;DHT22;64457;51.976;9.834;2023-04-21T06:28:35;25.70;62.30
75824;DHT22;64457;51.976;9.834;2023-04-21T06:31:04;26.00;62.00
75824;DHT22;64457;51.976;9.834;2023-04-21T06:33:33;26.30;59.80
75824;DHT22;64457;51.976;9.834;2023-04-21T06:36:00;26.20;59.70
75824;DHT22;64457;51.976;9.834;2023-04-21T06:38:27;26.10;59.40
75824;DHT22;64457;51.976;9.834;2023-04-21T06:40:55;26.50;60.30
75824;DHT22;64457;51.976;9.834;2023-04-21T06:43:22;27.00;59.10
75824;DHT22;64457;51.976;9.834;2023-04-21T06:45:49;27.70;57.70
75824;DHT22;64457;51.976;9.834;2023-04-21T06:48:16;28.10;57.60
75824;DHT22;64457;51.976;9.834;2023-04-21T06:50:45;28.50;55.40
75824;DHT22;64457;51.976;9.834;2023-04-21T06:53:13;26.50;58.20
75824;DHT22;64457;51.976;9.834;2023-04-21T06:55:41;25.60;59.20
75824;DHT22;64457;51.976;9.834;2023-04-21T06:58:08;25.70;60.00
75824;DHT22;64457;51.976;9.834;2023-04-21T07:00:36;25.90;58.90
75824;DHT22;64457;51.976;9.834;2023-04-21T07:03:03;26.60;59.30
75824;DHT22;64457;51.976;9.834;2023-04-21T07:05:31;27.80;57.50
75824;DHT22;64457;51.976;9.834;2023-04-21T07:08:00;28.60;55.70
75824;DHT22;64457;51.976;9.834;2023-04-21T07:10:28;28.70;55.20
75824;DHT22;64457;51.976;9.834;2023-04-21T07:12:56;28.30;54.40
75824;DHT22;64457;51.976;9.834;2023-04-21T07:15:24;27.70;55.50
75824;DHT22;64457;51.976;9.834;2023-04-21T07:17:51;27.70;57.00
75824;DHT22;64457;51.976;9.834;2023-04-21T07:20:19;27.90;57.00
75824;DHT22;64457;51.976;9.834;2023-04-21T07:22:46;28.40;55.40
75824;DHT22;64457;51.976;9.834;2023-04-21T07:25:15;28.40;53.60
75824;DHT22;64457;51.976;9.834;2023-04-21T07:27:42;27.90;55.90
75824;DHT22;64457;51.976;9.834;2023-04-21T07:30:10;28.20;57.00
75824;DHT22;64457;51.976;9.834;2023-04-21T07:32:38;29.30;53.90
75824;DHT22;64457;51.976;9.834;2023-04-21T07:35:06;29.90;54.20
75824;DHT22;64457;51.976;9.834;2023-04-21T07:37:34;31.00;52.50
75824;DHT22;64457;51.976;9.834;2023-04-21T07:40:01;31.40;50.90
75824;DHT22;64457;51.976;9.834;2023-04-21T07:42:30;30.00;51.30
75824;DHT22;64457;51.976;9.834;2023-04-21T07:44:57;28.90;53.60
75824;DHT22;64457;51.976;9.834;2023-04-21T07:47:27;29.10;53.00
75824;DHT22;64457;51.976;9.834;2023-04-21T07:49:55;29.90;52.90
75824;DHT22;64457;51.976;9.834;2023-04-21T07:52:22;30.20;51.90
75824;DHT22;64457;51.976;9.834;2023-04-21T07:54:50;30.90;51.40
75824;DHT22;64457;51.976;9.834;2023-04-21T07:57:18;30.90;50.90
75824;DHT22;64457;51.976;9.834;2023-04-21T07:59:46;31.20;49.80
75824;DHT22;64457;51.976;9.834;2023-04-21T08:02:14;30.30;50.00
75824;DHT22;64457;51.976;9.834;2023-04-21T08:04:43;30.40;53.00
75824;DHT22;64457;51.976;9.834;2023-04-21T08:07:10;31.00;50.90
75824;DHT22;64457;51.976;9.834;2023-04-21T08:09:40;32.10;49.30
75824;DHT22;64457;51.976;9.834;2023-04-21T08:12:26;32.30;49.10
75824;DHT22;64457;51.976;9.834;2023-04-21T08:14:54;32.90;48.20
75824;DHT22;64457;51.976;9.834;2023-04-21T08:17:21;33.40;47.10
75824;DHT22;64457;51.976;9.834;2023-04-21T08:19:49;32.70;46.20
75824;DHT22;64457;51.976;9.834;2023-04-21T08:22:16;33.10;48.30
75824;DHT22;64457;51.976;9.834;2023-04-21T08:24:44;34.10;46.70
75824;DHT22;64457;51.976;9.834;2023-04-21T08:27:11;34.70;47.40
75824;DHT22;64457;51.976;9.834;2023-04-21T08:29:39;34.60;45.90
75824;DHT22;64457;51.976;9.834;2023-04-21T08:32:07;35.50;44.50
75824;DHT22;64457;51.976;9.834;2023-04-21T08:34:36;35.00;43.60
75824;DHT22;64457;51.976;9.834;2023-04-21T08:37:03;35.10;43.50
75824;DHT22;64457;51.976;9.834;2023-04-21T08:39:30;34.30;43.70
75824;DHT22;64457;51.976;9.834;2023-04-21T08:41:58;34.10;44.40
75824;DHT22;64457;51.976;9.834;2023-04-21T08:44:26;34.60;42.20
75824;DHT22;64457;51.976;9.834;2023-04-21T08:46:54;33.50;43.20
75824;DHT22;64457;51.976;9.834;2023-04-21T08:49:24;32.10;45.20
75824;DHT22;64457;51.976;9.834;2023-04-21T08:51:55;31.90;46.30
75824;DHT22;64457;51.976;9.834;2023-04-21T08:54:23;32.30;45.10
75824;DHT22;64457;51.976;9.834;2023-04-21T08:56:50;32.50;45.20
75824;DHT22;64457;51.976;9.834;2023-04-21T08:59:17;31.70;44.40
75824;DHT22;64457;51.976;9.834;2023-04-21T09:02:07;31.80;46.60
75824;DHT22;64457;51.976;9.834;2023-04-21T09:04:39;32.50;48.10
75824;DHT22;64457;51.976;9.834;2023-04-21T09:07:07;31.80;46.00
75824;DHT22;64457;51.976;9.834;2023-04-21T09:09:52;31.80;46.80
75824;DHT22;64457;51.976;9.834;2023-04-21T09:12:20;31.80;44.00
75824;DHT22;64457;51.976;9.834;2023-04-21T09:14:48;32.00;46.40
75824;DHT22;64457;51.976;9.834;2023-04-21T09:17:16;32.00;45.70
75824;DHT22;64457;51.976;9.834;2023-04-21T09:19:47;31.90;44.80
75824;DHT22;64457;51.976;9.834;2023-04-21T09:22:16;31.10;46.60
75824;DHT22;64457;51.976;9.834;2023-04-21T09:24:45;31.40;48.40
75824;DHT22;64457;51.976;9.834;2023-04-21T09:27:14;31.40;44.80
75824;DHT22;64457;51.976;9.834;2023-04-21T09:29:45;31.20;45.80
75824;DHT22;64457;51.976;9.834;2023-04-21T09:32:17;30.50;46.90
75824;DHT22;64457;51.976;9.834;2023-04-21T09:34:47;30.00;48.20
75824;DHT22;64457;51.976;9.834;2023-04-21T09:37:15;30.30;46.50
75824;DHT22;64457;51.976;9.834;2023-04-21T09:39:46;30.20;47.30
75824;DHT22;64457;51.976;9.834;2023-04-21T09:42:13;29.90;49.20
75824;DHT22;64457;51.976;9.834;2023-04-21T09:44:40;30.10;49.00
75824;DHT22;64457;51.976;9.834;2023-04-21T09:47:09;30.40;45.40
75824;DHT22;64457;51.976;9.834;2023-04-21T09:49:39;30.50;46.10
75824;DHT22;64457;51.976;9.834;2023-04-21T09:52:11;30.00;48.50
75824;DHT22;64457;51.976;9.834;2023-04-21T09:54:47;29.80;45.30
75824;DHT22;64457;51.976;9.834;2023-04-21T09:57:20;28.90;47.60
75824;DHT22;64457;51.976;9.834;2023-04-21T09:59:53;28.60;47.00
75824;DHT22;64457;51.976;9.834;2023-04-21T10:02:24;27.30;48.10
75824;DHT22;64457;51.976;9.834;2023-04-21T10:04:52;27.30;48.80
75824;DHT22;64457;51.976;9.834;2023-04-21T10:07:21;28.30;47.70
75824;DHT22;64457;51.976;9.834;2023-04-21T10:09:51;28.50;47.10
75824;DHT22;64457;51.976;9.834;2023-04-21T10:12:21;29.40;45.90
75824;DHT22;64457;51.976;9.834;2023-04-21T10:14:50;29.20;45.90
75824;DHT22;64457;51.976;9.834;2023-04-21T10:17:21;28.60;46.20
75824;DHT22;64457;51.976;9.834;2023-04-21T10:19:51;28.60;46.40
75824;DHT22;64457;51.976;9.834;2023-04-21T10:22:30;27.90;46.10
75824;DHT22;64457;51.976;9.834;2023-04-21T10:25:00;27.70;50.30
75824;DHT22;64457;51.976;9.834;2023-04-21T10:27:33;27.90;48.50
75824;DHT22;64457;51.976;9.834;2023-04-21T10:30:20;27.80;49.20
75824;DHT22;64457;51.976;9.834;2023-04-21T10:33:01;28.20;46.50
75824;DHT22;64457;51.976;9.834;2023-04-21T10:35:57;28.50;46.60
75824;DHT22;64457;51.976;9.834;2023-04-21T10:38:40;28.80;48.10
75824;DHT22;64457;51.976;9.834;2023-04-21T10:41:27;28.40;45.30
75824;DHT22;64457;51.976;9.834;2023-04-21T10:43:57;27.80;46.60
75824;DHT22;64457;51.976;9.834;2023-04-21T10:46:31;27.90;48.40
75824;DHT22;64457;51.976;9.834;2023-04-21T10:49:07;28.40;48.50
75824;DHT22;64457;51.976;9.834;2023-04-21T10:52:04;28.70;45.40
75824;DHT22;64457;51.976;9.834;2023-04-21T10:54:42;28.10;46.60
75824;DHT22;64457;51.976;9.834;2023-04-21T10:57:30;27.10;47.40
75824;DHT22;64457;51.976;9.834;2023-04-21T11:00:00;26.50;50.70
75824;DHT22;64457;51.976;9.834;2023-04-21T11:02:30;26.10;48.50
75824;DHT22;64457;51.976;9.834;2023-04-21T11:04:58;26.40;48.80
75824;DHT22;64457;51.976;9.834;2023-04-21T11:07:27;26.80;48.20
75824;DHT22;64457;51.976;9.834;2023-04-21T11:10:01;27.00;48.30
75824;DHT22;64457;51.976;9.834;2023-04-21T11:12:33;26.00;49.70
75824;DHT22;64457;51.976;9.834;2023-04-21T11:15:05;26.50;50.00
75824;DHT22;64457;51.976;9.834;2023-04-21T11:17:36;26.40;49.40
75824;DHT22;64457;51.976;9.834;2023-04-21T11:20:05;25.60;50.30
75824;DHT22;64457;51.976;9.834;2023-04-21T11:22:36;26.00;49.10
75824;DHT22;64457;51.976;9.834;2023-04-21T11:25:16;25.40;49.20
75824;DHT22;64457;51.976;9.834;2023-04-21T11:27:52;25.70;49.40
75824;DHT22;64457;51.976;9.834;2023-04-21T11:30:21;25.60;51.20
75824;DHT22;64457;51.976;9.834;2023-04-21T11:33:00;25.50;48.80
75824;DHT22;64457;51.976;9.834;2023-04-21T11:35:30;25.20;49.80
75824;DHT22;64457;51.976;9.834;2023-04-21T11:38:03;25.10;51.70
75824;DHT22;64457;51.976;9.834;2023-04-21T11:40:45;25.60;50.80
75824;DHT22;64457;51.976;9.834;2023-04-21T11:43:13;25.50;50.30
75824;DHT22;64457;51.976;9.834;2023-04-21T11:45:48;26.00;50.20
75824;DHT22;64457;51.976;9.834;2023-04-21T11:48:17;25.60;48.40
75824;DHT22;64457;51.976;9.834;2023-04-21T11:50:49;25.30;50.00
75824;DHT22;64457;51.976;9.834;2023-04-21T11:53:18;25.10;50.10
75824;DHT22;64457;51.976;9.834;2023-04-21T11:55:48;25.10;48.90
75824;DHT22;64457;51.976;9.834;2023-04-21T11:58:15;25.10;51.10
75824;DHT22;64457;51.976;9.834;2023-04-21T12:00:44;25.00;48.20
75824;DHT22;64457;51.976;9.834;2023-04-21T12:03:12;24.60;51.60
75824;DHT22;64457;51.976;9.834;2023-04-21T12:05:39;24.20;50.90
75824;DHT22;64457;51.976;9.834;2023-04-21T12:08:12;24.20;50.50
75824;DHT22;64457;51.976;9.834;2023-04-21T12:10:44;24.70;53.20
75824;DHT22;64457;51.976;9.834;2023-04-21T12:13:20;24.90;49.90
75824;DHT22;64457;51.976;9.834;2023-04-21T12:15:48;24.90;50.20
75824;DHT22;64457;51.976;9.834;2023-04-21T12:18:16;25.00;49.20
75824;DHT22;64457;51.976;9.834;2023-04-21T12:20:48;24.80;50.40
75824;DHT22;64457;51.976;9.834;2023-04-21T12:23:16;25.00;52.10
75824;DHT22;64457;51.976;9.834;2023-04-21T12:25:45;25.00;49.60
75824;DHT22;64457;51.976;9.834;2023-04-21T12:28:16;24.70;51.80
75824;DHT22;64457;51.976;9.834;2023-04-21T12:30:43;24.40;50.90
75824;DHT22;64457;51.976;9.834;2023-04-21T12:33:11;24.50;51.70
75824;DHT22;64457;51.976;9.834;2023-04-21T12:35:39;24.90;52.60
75824;DHT22;64457;51.976;9.834;2023-04-21T12:38:06;25.00;51.00
75824;DHT22;64457;51.976;9.834;2023-04-21T12:40:34;24.80;49.60
75824;DHT22;64457;51.976;9.834;2023-04-21T12:43:02;24.30;51.60
75824;DHT22;64457;51.976;9.834;2023-04-21T12:45:31;24.10;50.00
75824;DHT22;64457;51.976;9.834;2023-04-21T12:47:59;23.90;49.00
75824;DHT22;64457;51.976;9.834;2023-04-21T12:50:29;24.20;50.20
75824;DHT22;64457;51.976;9.834;2023-04-21T12:52:56;23.90;49.90
75824;DHT22;64457;51.976;9.834;2023-04-21T12:55:24;23.90;49.60
75824;DHT22;64457;51.976;9.834;2023-04-21T12:57:52;23.70;49.90
75824;DHT22;64457;51.976;9.834;2023-04-21T13:00:20;23.70;50.10
75824;DHT22;64457;51.976;9.834;2023-04-21T13:02:49;24.00;52.60
75824;DHT22;64457;51.976;9.834;2023-04-21T13:05:16;24.50;51.40
75824;DHT22;64457;51.976;9.834;2023-04-21T13:07:44;25.20;48.50
75824;DHT22;64457;51.976;9.834;2023-04-21T13:10:13;25.30;49.00
75824;DHT22;64457;51.976;9.834;2023-04-21T13:12:42;25.00;47.40
75824;DHT22;64457;51.976;9.834;2023-04-21T13:15:11;24.40;46.60
75824;DHT22;64457;51.976;9.834;2023-04-21T13:17:39;24.10;48.80
75824;DHT22;64457;51.976;9.834;2023-04-21T13:20:10;24.30;47.70
75824;DHT22;64457;51.976;9.834;2023-04-21T13:22:37;24.50;47.10
75824;DHT22;64457;51.976;9.834;2023-04-21T13:25:05;24.60;47.60
75824;DHT22;64457;51.976;9.834;2023-04-21T13:27:34;24.70;48.00
75824;DHT22;64457;51.976;9.834;2023-04-21T13:30:04;24.80;46.20
75824;DHT22;64457;51.976;9.834;2023-04-21T13:32:33;24.50;47.20
75824;DHT22;64457;51.976;9.834;2023-04-21T13:35:02;23.90;47.40
75824;DHT22;64457;51.976;9.834;2023-04-21T13:37:35;23.60;48.40
75824;DHT22;64457;51.976;9.834;2023-04-21T13:40:04;23.80;49.40
75824;DHT22;64457;51.976;9.834;2023-04-21T13:42:33;23.70;48.60
75824;DHT22;64457;51.976;9.834;2023-04-21T13:45:00;23.80;47.70
75824;DHT22;64457;51.976;9.834;2023-04-21T13:47:28;23.60;47.70
75824;DHT22;64457;51.976;9.834;2023-04-21T13:49:56;23.50;47.30
75824;DHT22;64457;51.976;9.834;2023-04-21T13:52:23;23.30;47.00
75824;DHT22;64457;51.976;9.834;2023-04-21T13:54:53;23.30;48.10
75824;DHT22;64457;51.976;9.834;2023-04-21T13:57:21;23.40;46.80
75824;DHT22;64457;51.976;9.834;2023-04-21T13:59:49;23.30;46.90
75824;DHT22;64457;51.976;9.834;2023-04-21T14:02:17;23.20;48.20
75824;DHT22;64457;51.976;9.834;2023-04-21T14:04:47;23.00;48.00
75824;DHT22;64457;51.976;9.834;2023-04-21T14:07:14;23.00;48.20
75824;DHT22;64457;51.976;9.834;2023-04-21T14:09:44;22.90;49.40
75824;DHT22;64457;51.976;9.834;2023-04-21T14:12:13;23.10;48.50
75824;DHT22;64457;51.976;9.834;2023-04-21T14:14:41;23.20;48.70
75824;DHT22;64457;51.976;9.834;2023-04-21T14:17:08;23.40;48.40
75824;DHT22;64457;51.976;9.834;2023-04-21T14:19:35;23.70;50.00
75824;DHT22;64457;51.976;9.834;2023-04-21T14:22:04;23.80;47.30
75824;DHT22;64457;51.976;9.834;2023-04-21T14:24:31;23.40;47.30
75824;DHT22;64457;51.976;9.834;2023-04-21T14:26:59;22.90;47.90
75824;DHT22;64457;51.976;9.834;2023-04-21T14:29:28;22.80;49.20
75824;DHT22;64457;51.976;9.834;2023-04-21T14:31:56;23.00;48.30
75824;DHT22;64457;51.976;9.834;2023-04-21T14:34:24;23.00;47.60
75824;DHT22;64457;51.976;9.834;2023-04-21T14:36:52;22.20;48.50
75824;DHT22;64457;51.976;9.834;2023-04-21T14:39:20;22.20;49.10
75824;DHT22;64457;51.976;9.834;2023-04-21T14:41:48;22.30;49.10
75824;DHT22;64457;51.976;9.834;2023-04-21T14:44:15;22.90;49.20
75824;DHT22;64457;51.976;9.834;2023-04-21T14:46:45;23.20;47.80
75824;DHT22;64457;51.976;9.834;2023-04-21T14:49:13;23.50;48.70
75824;DHT22;64457;51.976;9.834;2023-04-21T14:51:41;23.80;48.60
75824;DHT22;64457;51.976;9.834;2023-04-21T14:54:10;23.60;47.10
75824;DHT22;64457;51.976;9.834;2023-04-21T14:56:38;23.10;48.10
75824;DHT22;64457;51.976;9.834;2023-04-21T14:59:08;23.30;49.20
75824;DHT22;64457;51.976;9.834;2023-04-21T15:01:36;23.70;47.50
75824;DHT22;64457;51.976;9.834;2023-04-21T15:04:05;23.80;48.30
75824;DHT22;64457;51.976;9.834;2023-04-21T15:06:32;23.50;46.80
75824;DHT22;64457;51.976;9.834;2023-04-21T15:09:00;23.50;47.70
75824;DHT22;64457;51.976;9.834;2023-04-21T15:11:29;23.20;48.30
75824;DHT22;64457;51.976;9.834;2023-04-21T15:13:57;23.00;48.10
75824;DHT22;64457;51.976;9.834;2023-04-21T15:16:24;23.00;48.30
75824;DHT22;64457;51.976;9.834;2023-04-21T15:18:52;23.00;48.50
75824;DHT22;64457;51.976;9.834;2023-04-21T15:21:21;23.00;48.00
75824;DHT22;64457;51.976;9.834;2023-04-21T15:23:49;22.50;49.20
75824;DHT22;64457;51.976;9.834;2023-04-21T15:26:17;22.60;49.80
75824;DHT22;64457;51.976;9.834;2023-04-21T15:28:44;22.40;49.10
75824;DHT22;64457;51.976;9.834;2023-04-21T15:31:12;22.50;49.50
75824;DHT22;64457;51.976;9.834;2023-04-21T15:33:41;22.90;49.10
75824;DHT22;64457;51.976;9.834;2023-04-21T15:36:09;23.20;49.50
75824;DHT22;64457;51.976;9.834;2023-04-21T15:38:38;23.20;48.80
75824;DHT22;64457;51.976;9.834;2023-04-21T15:41:06;23.30;49.50